Time;durP1;ratioP1;P1;durP2;ratioP2;P2;SDS_P1;SDS_P2;PMS_P1;PMS_P2;Temp;Humidity;BMP_temperature;BMP_pressure;BME280_temperature;BME280_humidity;BME280_pressure;Samples;Min_cycle;Max_cycle;Signal;HPM_P1;HPM_P2
2022/06/30 00:01:53;;;;;;;8.50;7.53;;;;;;;24.99;77.48;100995.69;7399287;19;20025;-43
2022/06/30 00:04:22;;;;;;;8.68;7.78;;;;;;;25.07;77.15;100986.84;7400946;19;20010;-43
2022/06/30 00:06:52;;;;;;;8.98;7.90;;;;;;;25.12;76.38;100982.69;7400500;19;20018;-44
2022/06/30 00:09:21;;;;;;;9.65;8.75;;;;;;;25.08;76.52;100978.63;7396408;19;20018;-45
2022/06/30 00:11:53;;;;;;;11.90;9.20;;;;;;;25.07;76.70;100981.47;7398142;19;20014;-43
2022/06/30 00:14:22;;;;;;;12.18;8.75;;;;;;;25.17;77.01;100977.66;7398612;19;20014;-44
2022/06/30 00:16:51;;;;;;;12.93;9.02;;;;;;;25.14;76.61;100980.66;7395927;19;20015;-44
2022/06/30 00:19:20;;;;;;;9.07;8.18;;;;;;;25.09;76.76;100977.63;7394089;19;20460;-46
2022/06/30 00:21:49;;;;;;;9.77;8.65;;;;;;;25.00;77.63;100973.22;7394093;19;20031;-43
2022/06/30 00:24:18;;;;;;;12.05;8.63;;;;;;;25.04;77.53;100963.84;7394140;19;20014;-46
2022/06/30 00:26:47;;;;;;;9.98;8.98;;;;;;;24.92;79.91;100960.59;7394157;19;20087;-43
2022/06/30 00:29:18;;;;;;;11.00;9.20;;;;;;;24.99;79.15;100961.66;7394449;19;20019;-45
2022/06/30 00:31:47;;;;;;;9.85;8.85;;;;;;;24.93;78.81;100956.06;7395184;19;20082;-43
2022/06/30 00:34:16;;;;;;;13.25;10.32;;;;;;;24.87;79.21;100958.41;7394467;19;20022;-43
2022/06/30 00:36:45;;;;;;;10.93;9.88;;;;;;;24.90;79.02;100957.22;7394895;19;20018;-43
2022/06/30 00:39:14;;;;;;;10.70;9.60;;;;;;;25.01;77.73;100951.59;7394173;19;20011;-43
2022/06/30 00:41:44;;;;;;;10.40;9.35;;;;;;;24.92;78.09;100951.75;7392664;19;20010;-43
2022/06/30 00:44:13;;;;;;;12.07;9.32;;;;;;;24.90;78.82;100943.81;7394387;19;20495;-43
2022/06/30 00:46:45;;;;;;;12.73;10.25;;;;;;;24.92;78.96;100944.53;7393908;19;20084;-43
2022/06/30 00:49:14;;;;;;;10.70;9.60;;;;;;;24.94;78.51;100950.56;7392632;19;20847;-43
2022/06/30 00:51:43;;;;;;;10.77;9.68;;;;;;;24.88;79.41;100949.34;7392141;19;20013;-43
2022/06/30 00:54:14;;;;;;;10.98;9.98;;;;;;;25.02;77.98;100947.94;7391850;19;20014;-43
2022/06/30 00:56:45;;;;;;;12.38;10.35;;;;;;;24.75;80.69;100953.47;7393392;19;20022;-46
2022/06/30 00:59:16;;;;;;;11.75;9.95;;;;;;;24.72;80.27;100951.94;7393357;19;20020;-43
2022/06/30 01:01:49;;;;;;;11.73;10.50;;;;;;;24.76;80.33;100947.97;7394192;19;20029;-44
2022/06/30 01:04:18;;;;;;;12.43;10.63;;;;;;;24.81;80.42;100953.66;7397547;19;20010;-43
2022/06/30 01:06:48;;;;;;;11.45;10.20;;;;;;;24.79;81.63;100946.81;7400031;19;20074;-43
2022/06/30 01:12:41;;;;;;;13.27;11.77;;;;;;;24.79;81.23;100947.63;7398744;19;20017;-43
2022/06/30 01:14:54;;;;;;;11.93;10.65;;;;;;;24.70;82.04;100941.38;7399168;19;20006;-43
2022/06/30 01:17:26;;;;;;;14.35;10.57;;;;;;;24.58;85.21;100937.25;7395048;19;20014;-46
2022/06/30 01:19:55;;;;;;;13.35;11.50;;;;;;;24.44;87.05;100940.50;7393391;19;20022;-45
2022/06/30 01:22:27;;;;;;;12.75;11.45;;;;;;;24.45;85.87;100942.19;7394454;19;20013;-45
2022/06/30 01:24:56;;;;;;;13.05;11.18;;;;;;;24.44;86.42;100940.50;7393773;19;20014;-45
2022/06/30 01:27:25;;;;;;;11.95;10.65;;;;;;;24.34;86.00;100943.25;7394426;19;20025;-45
2022/06/30 01:29:54;;;;;;;12.73;11.45;;;;;;;24.50;86.57;100939.84;7391041;19;20475;-48
2022/06/30 01:32:23;;;;;;;12.90;11.60;;;;;;;24.49;87.06;100938.19;7392893;19;20415;-45
2022/06/30 01:34:52;;;;;;;13.68;12.35;;;;;;;24.59;86.24;100949.66;7393155;19;20045;-47
2022/06/30 01:37:21;;;;;;;13.30;12.05;;;;;;;24.51;88.20;100950.41;7392490;19;20344;-45
2022/06/30 01:39:53;;;;;;;13.20;11.65;;;;;;;24.45;89.10;100953.72;7390860;19;20014;-47
2022/06/30 01:42:23;;;;;;;14.10;12.30;;;;;;;24.47;88.70;100956.25;7392474;19;20086;-46
2022/06/30 01:44:52;;;;;;;13.52;12.10;;;;;;;24.50;89.94;100958.59;7392659;19;20021;-45
2022/06/30 01:47:20;;;;;;;13.38;11.98;;;;;;;24.32;90.37;100956.81;7392023;19;20025;-45
2022/06/30 01:49:49;;;;;;;13.05;11.75;;;;;;;24.44;90.47;100953.88;7390450;19;20010;-45
2022/06/30 01:52:18;;;;;;;15.55;12.30;;;;;;;24.41;90.79;100960.38;7390100;19;20026;-45
2022/06/30 01:54:47;;;;;;;15.50;12.45;;;;;;;24.46;90.18;100957.25;7392224;19;20014;-45
2022/06/30 01:57:19;;;;;;;15.48;13.88;;;;;;;24.55;89.09;100964.34;7391374;19;20026;-46
2022/06/30 01:59:48;;;;;;;15.00;13.50;;;;;;;24.55;89.81;100955.47;7392000;19;20010;-45
2022/06/30 02:02:17;;;;;;;14.85;13.27;;;;;;;24.39;88.99;100961.56;7390002;19;20021;-45
2022/06/30 02:04:53;;;;;;;14.25;12.85;;;;;;;24.39;91.50;100959.72;7391587;19;20049;-45
2022/06/30 02:07:24;;;;;;;15.00;12.38;;;;;;;24.27;91.59;100964.47;7398290;19;20018;-47
2022/06/30 02:09:53;;;;;;;15.25;13.60;;;;;;;24.12;93.10;100966.00;7397446;19;20026;-48
2022/06/30 02:15:08;;;;;;;15.68;13.80;;;;;;;24.24;93.76;100963.94;7399626;19;20029;-45
2022/06/30 02:17:38;;;;;;;14.68;12.82;;;;;;;24.11;91.79;100967.81;7399481;19;20386;-45
2022/06/30 02:20:08;;;;;;;15.02;13.48;;;;;;;24.15;94.29;100957.66;7397889;19;20011;-45
2022/06/30 02:22:37;;;;;;;14.65;13.23;;;;;;;24.14;93.87;100958.66;7397782;19;20673;-46
2022/06/30 02:25:08;;;;;;;15.18;13.70;;;;;;;24.22;95.15;100957.91;7403168;19;20018;-45
2022/06/30 02:27:40;;;;;;;15.45;13.95;;;;;;;24.25;92.77;100954.91;7399019;19;20054;-46
2022/06/30 02:30:10;;;;;;;16.58;14.98;;;;;;;24.15;94.69;100960.34;7395672;19;20019;-44
2022/06/30 02:32:39;;;;;;;16.38;12.93;;;;;;;24.02;93.69;100953.53;7396378;19;20021;-47
2022/06/30 02:35:09;;;;;;;15.52;13.80;;;;;;;24.12;95.80;100953.44;7398180;19;20017;-46
2022/06/30 02:37:38;;;;;;;16.00;14.48;;;;;;;24.14;95.32;100956.84;7399021;19;20541;-45
2022/06/30 02:40:09;;;;;;;16.33;14.70;;;;;;;24.20;95.87;100955.38;7397851;19;20098;-45
2022/06/30 02:42:40;;;;;;;16.45;14.90;;;;;;;24.16;97.08;100957.50;7396145;19;20081;-44
2022/06/30 02:45:11;;;;;;;15.98;14.45;;;;;;;23.98;97.74;100962.84;7396900;19;20025;-44
2022/06/30 02:47:41;;;;;;;16.60;14.43;;;;;;;24.01;97.59;100951.88;7397637;19;20014;-44
2022/06/30 02:50:12;;;;;;;16.60;14.90;;;;;;;23.98;97.05;100967.38;7394902;19;20090;-45
2022/06/30 02:52:42;;;;;;;16.17;14.52;;;;;;;23.98;97.29;100964.69;7396158;19;20053;-44
2022/06/30 02:55:11;;;;;;;17.60;15.60;;;;;;;23.92;96.99;100962.63;7398327;19;20348;-45
2022/06/30 02:57:43;;;;;;;16.67;15.02;;;;;;;23.90;98.91;100960.13;7398267;19;20022;-46
2022/06/30 03:00:13;;;;;;;17.88;15.15;;;;;;;23.89;98.13;100961.09;7396710;19;20089;-48
2022/06/30 03:02:43;;;;;;;16.92;15.23;;;;;;;23.86;99.48;100956.03;7396187;19;20030;-45
2022/06/30 03:05:13;;;;;;;17.08;15.35;;;;;;;23.97;98.44;100954.97;7397260;19;20487;-44
2022/06/30 03:07:42;;;;;;;17.15;15.30;;;;;;;23.80;100.00;100956.63;7398804;19;20021;-44
2022/06/30 03:10:11;;;;;;;16.00;14.40;;;;;;;24.01;94.96;100965.25;7399938;19;20022;-46
2022/06/30 03:12:43;;;;;;;16.85;15.25;;;;;;;23.89;96.33;100957.59;7395712;19;20073;-45
2022/06/30 03:15:13;;;;;;;17.23;15.05;;;;;;;23.91;97.26;100969.81;7396933;19;20506;-44
2022/06/30 03:17:42;;;;;;;18.10;15.35;;;;;;;23.83;97.56;100967.88;7396975;19;20019;-44
2022/06/30 03:20:12;;;;;;;18.58;14.85;;;;;;;23.97;96.44;100957.66;7398703;19;20007;-45
2022/06/30 03:22:41;;;;;;;18.10;16.23;;;;;;;23.84;96.93;100956.19;7398503;19;20018;-45
2022/06/30 03:25:10;;;;;;;17.50;15.70;;;;;;;23.96;96.06;100959.50;7399941;19;20022;-48
2022/06/30 03:27:39;;;;;;;17.90;15.98;;;;;;;23.73;98.52;100960.91;7411757;19;20047;-45
2022/06/30 03:30:12;;;;;;;17.88;16.08;;;;;;;23.79;99.83;100958.44;7416891;19;20043;-46
2022/06/30 03:32:41;;;;;;;18.25;16.40;;;;;;;23.90;99.47;100952.09;7419886;19;20027;-48
2022/06/30 03:35:11;;;;;;;18.15;16.30;;;;;;;23.93;97.82;100950.94;7417420;19;20023;-48
2022/06/30 03:37:40;;;;;;;18.23;16.42;;;;;;;23.87;98.90;100952.41;7415229;19;20029;-44
2022/06/30 03:40:10;;;;;;;17.75;15.95;;;;;;;23.83;97.83;100940.28;7398108;19;20009;-47
2022/06/30 03:42:39;;;;;;;18.13;16.23;;;;;;;23.78;99.69;100945.22;7397318;19;20022;-44
2022/06/30 03:45:12;;;;;;;17.48;15.68;;;;;;;23.85;99.13;100939.09;7397213;19;20018;-46
2022/06/30 03:47:41;;;;;;;18.33;16.38;;;;;;;23.81;100.00;100940.44;7397408;19;20020;-47
2022/06/30 03:50:11;;;;;;;17.63;15.80;;;;;;;23.86;100.00;100939.97;7394796;19;20033;-44
2022/06/30 03:52:40;;;;;;;18.67;16.45;;;;;;;23.59;100.00;100941.69;7394617;19;20018;-44
2022/06/30 03:55:10;;;;;;;18.77;16.88;;;;;;;23.70;100.00;100947.81;7396023;19;20011;-44
2022/06/30 03:57:39;;;;;;;18.17;16.33;;;;;;;23.62;100.00;100945.91;7395679;19;20020;-44
2022/06/30 04:00:12;;;;;;;25.27;18.52;;;;;;;23.76;100.00;100948.06;7394919;19;20036;-44
2022/06/30 04:02:41;;;;;;;18.80;16.90;;;;;;;23.74;100.00;100944.72;7394330;19;20455;-43
2022/06/30 04:05:11;;;;;;;19.38;17.35;;;;;;;23.76;100.00;100941.88;7395870;19;20021;-45
2022/06/30 04:07:44;;;;;;;19.23;17.23;;;;;;;23.75;100.00;100940.19;7395925;19;20021;-44
2022/06/30 04:10:15;;;;;;;19.92;18.00;;;;;;;23.72;100.00;100932.47;7392663;19;20011;-44
2022/06/30 04:12:44;;;;;;;20.20;17.42;;;;;;;23.71;100.00;100936.94;7393609;19;20018;-44
2022/06/30 04:15:16;;;;;;;20.42;18.10;;;;;;;23.84;100.00;100934.78;7395300;19;20116;-43
2022/06/30 04:17:45;;;;;;;21.80;19.20;;;;;;;23.97;99.55;100938.91;7396687;19;20049;-44
2022/06/30 04:20:19;;;;;;;19.88;17.88;;;;;;;23.96;100.00;100935.41;7393661;19;20418;-47
2022/06/30 04:22:50;;;;;;;20.92;18.77;;;;;;;23.83;100.00;100932.25;7394725;19;20019;-43
2022/06/30 04:25:20;;;;;;;19.33;17.33;;;;;;;23.64;100.00;100923.34;7397167;19;20010;-44
2022/06/30 04:27:52;;;;;;;19.65;17.55;;;;;;;23.53;100.00;100920.91;7393351;19;20018;-44
2022/06/30 04:33:05;;;;;;;21.23;18.65;;;;;;;23.62;100.00;100924.50;7389644;19;20022;-44
2022/06/30 04:35:34;;;;;;;19.92;17.95;;;;;;;23.64;100.00;100936.72;7391413;19;20041;-44
2022/06/30 04:38:05;;;;;;;21.05;18.85;;;;;;;23.84;100.00;100926.75;7393617;19;20014;-44
2022/06/30 04:43:16;;;;;;;24.48;19.23;;;;;;;23.69;100.00;100930.94;7394723;19;20018;-43
2022/06/30 04:45:47;;;;;;;20.42;18.33;;;;;;;23.83;100.00;100934.91;7395056;19;20009;-44
2022/06/30 04:48:16;;;;;;;20.27;18.15;;;;;;;23.77;100.00;100927.47;7394175;19;20058;-44
2022/06/30 04:50:45;;;;;;;23.02;20.15;;;;;;;24.00;100.00;100928.75;7356279;19;20085;-43
2022/06/30 04:53:14;;;;;;;23.88;20.15;;;;;;;23.98;100.00;100933.41;7399025;19;20015;-45
2022/06/30 04:55:43;;;;;;;23.58;20.98;;;;;;;23.97;100.00;100920.19;7340335;19;21262;-45
2022/06/30 04:58:12;;;;;;;21.95;19.00;;;;;;;24.05;100.00;100916.75;7394519;19;20492;-44
2022/06/30 05:00:41;;;;;;;22.05;19.75;;;;;;;24.15;100.00;100917.50;7394119;19;20015;-48
2022/06/30 05:03:13;;;;;;;24.88;21.85;;;;;;;24.16;100.00;100914.66;7393855;19;20487;-45
2022/06/30 05:05:42;;;;;;;22.35;19.92;;;;;;;23.83;100.00;100922.38;7394181;19;20120;-45
2022/06/30 05:08:11;;;;;;;22.70;20.42;;;;;;;23.64;100.00;100909.97;7391170;19;20344;-45
2022/06/30 05:10:40;;;;;;;22.27;19.95;;;;;;;23.88;100.00;100907.72;7391508;19;20015;-45
2022/06/30 05:13:09;;;;;;;27.73;21.75;;;;;;;23.96;100.00;100910.50;7391117;19;20022;-44
2022/06/30 05:15:39;;;;;;;23.30;20.95;;;;;;;24.01;100.00;100906.34;7389942;19;20022;-44
2022/06/30 05:18:08;;;;;;;23.08;20.48;;;;;;;24.08;100.00;100906.56;7351248;19;20011;-45
2022/06/30 05:20:39;;;;;;;58.05;23.27;;;;;;;24.27;100.00;100910.91;7397414;19;20014;-44
2022/06/30 05:23:09;;;;;;;26.02;23.13;;;;;;;24.38;100.00;100908.97;7392510;19;20103;-44
2022/06/30 05:28:21;;;;;;;32.42;25.60;;;;;;;24.51;100.00;100904.03;7387201;19;20078;-46
2022/06/30 05:30:50;;;;;;;26.55;22.85;;;;;;;24.53;100.00;100905.56;7390227;19;20082;-44
2022/06/30 05:33:21;;;;;;;27.80;24.33;;;;;;;24.64;99.70;100909.84;7392576;19;20762;-46
2022/06/30 05:35:55;;;;;;;29.05;26.00;;;;;;;24.70;98.98;100909.22;7391286;19;20022;-45
2022/06/30 05:38:24;;;;;;;26.05;23.55;;;;;;;24.48;100.00;100923.94;7392231;19;20440;-47
2022/06/30 05:40:53;;;;;;;36.28;24.38;;;;;;;24.43;100.00;100918.22;7389693;19;20014;-43
2022/06/30 05:43:22;;;;;;;25.77;22.42;;;;;;;24.51;100.00;100907.53;7393038;19;20356;-46
2022/06/30 05:45:53;;;;;;;31.75;22.95;;;;;;;24.55;100.00;100915.31;7391611;19;20082;-45
2022/06/30 05:48:22;;;;;;;34.75;26.25;;;;;;;24.64;100.00;100909.84;7391611;19;20405;-46
2022/06/30 05:50:53;;;;;;;34.65;29.70;;;;;;;24.82;100.00;100909.78;7392112;19;20682;-45
2022/06/30 05:53:22;;;;;;;33.30;28.30;;;;;;;24.85;100.00;100914.81;7392743;19;20015;-46
2022/06/30 05:55:51;;;;;;;30.70;25.73;;;;;;;24.82;100.00;100917.84;7392074;19;20011;-45
2022/06/30 05:58:20;;;;;;;30.80;27.50;;;;;;;24.92;98.69;100919.56;7391661;19;20006;-48
2022/06/30 06:00:49;;;;;;;31.92;27.48;;;;;;;25.00;97.19;100922.28;7391845;19;20018;-46
2022/06/30 06:03:18;;;;;;;29.75;26.55;;;;;;;24.88;98.92;100924.41;7392577;19;20018;-46
2022/06/30 06:05:47;;;;;;;32.00;25.17;;;;;;;24.94;97.70;100930.97;7394444;19;20025;-45
2022/06/30 06:08:19;;;;;;;29.42;26.13;;;;;;;24.85;100.00;100930.06;7391975;19;20014;-45
2022/06/30 06:10:48;;;;;;;28.20;25.20;;;;;;;25.15;98.17;100915.31;7392646;19;20344;-49
2022/06/30 06:13:17;;;;;;;28.48;25.48;;;;;;;25.12;99.15;100923.69;7393235;19;20011;-45
2022/06/30 06:15:46;;;;;;;29.45;26.17;;;;;;;25.03;98.93;100932.66;7392796;19;20021;-45
2022/06/30 06:18:15;;;;;;;33.65;30.08;;;;;;;25.15;99.70;100930.56;7393162;19;20015;-48
2022/06/30 06:20:45;;;;;;;30.45;26.80;;;;;;;25.18;100.00;100925.72;7393039;19;20014;-46
2022/06/30 06:23:14;;;;;;;32.17;27.35;;;;;;;24.74;100.00;100949.09;7393970;19;20053;-47
2022/06/30 06:25:45;;;;;;;31.90;26.77;;;;;;;24.87;100.00;100920.88;7391609;19;20014;-45
2022/06/30 06:30:56;;;;;;;28.00;24.67;;;;;;;25.43;99.96;100933.03;7391788;19;20022;-45
2022/06/30 06:33:24;;;;;;;30.42;24.60;;;;;;;25.36;94.10;100930.16;7393325;19;20011;-45
2022/06/30 06:35:53;;;;;;;25.85;22.42;;;;;;;24.97;97.86;100936.81;7393258;19;20535;-44
2022/06/30 06:38:22;;;;;;;30.73;24.60;;;;;;;25.00;99.07;100939.22;7391592;19;20034;-43
2022/06/30 06:40:54;;;;;;;24.85;22.23;;;;;;;25.37;95.19;100937.22;7392761;19;20018;-43
2022/06/30 06:43:23;;;;;;;24.90;22.25;;;;;;;25.41;94.51;100933.19;7392665;19;20090;-43
2022/06/30 06:45:52;;;;;;;25.40;22.30;;;;;;;25.48;91.37;100930.72;7392242;19;20096;-43
2022/06/30 06:48:22;;;;;;;26.30;21.80;;;;;;;25.45;90.93;100936.41;7392253;19;20010;-44
2022/06/30 06:50:51;;;;;;;30.08;22.58;;;;;;;25.52;92.25;100930.22;7391835;19;20018;-44
2022/06/30 06:53:23;;;;;;;;;;;;;;;25.68;91.29;100940.16;7399857;19;20022;-43
2022/06/30 06:55:55;;;;;;;33.08;22.30;;;;;;;25.86;91.87;100925.75;7399409;19;19922;-43
2022/06/30 06:58:24;;;;;;;22.75;18.73;;;;;;;25.61;91.09;100927.56;7397812;19;20015;-46
2022/06/30 07:00:54;;;;;;;22.70;19.80;;;;;;;25.83;87.34;100934.97;7399495;19;20767;-45
2022/06/30 07:03:24;;;;;;;22.77;20.48;;;;;;;26.01;84.25;100936.72;7398598;19;20030;-43
2022/06/30 07:05:53;;;;;;;22.13;19.55;;;;;;;25.85;85.85;100946.41;7399599;19;20018;-44
2022/06/30 07:08:22;;;;;;;24.42;21.27;;;;;;;25.44;89.44;100951.66;7398959;19;20022;-44
2022/06/30 07:10:51;;;;;;;22.88;19.73;;;;;;;25.41;88.76;100951.97;7398482;19;20352;-46
2022/06/30 07:13:23;;;;;;;24.15;19.73;;;;;;;25.11;91.91;100959.53;7399380;19;20015;-45
2022/06/30 07:15:52;;;;;;;22.05;19.65;;;;;;;25.20;93.78;100961.25;7398504;19;20086;-44
2022/06/30 07:18:22;;;;;;;22.42;19.60;;;;;;;25.10;88.72;100971.25;7397970;19;20026;-46
2022/06/30 07:20:51;;;;;;;20.33;18.05;;;;;;;25.26;90.64;100972.34;7399501;19;20352;-44
2022/06/30 07:23:20;;;;;;;22.02;19.73;;;;;;;25.86;86.03;100969.56;7398698;19;20022;-44
2022/06/30 07:25:49;;;;;;;25.05;22.20;;;;;;;25.68;86.28;100976.91;7399210;19;20007;-44
2022/06/30 07:28:18;;;;;;;28.98;23.13;;;;;;;26.24;84.33;100978.03;7397935;19;20018;-45
2022/06/30 07:30:52;;;;;;;25.73;23.08;;;;;;;25.33;89.60;100979.63;7398406;19;20081;-46
2022/06/30 07:33:21;;;;;;;31.98;23.40;;;;;;;25.48;91.05;100987.91;7399246;19;20487;-45
2022/06/30 07:35:50;;;;;;;29.23;25.92;;;;;;;25.69;89.55;100991.97;7399129;19;20744;-46
2022/06/30 07:38:19;;;;;;;28.90;25.83;;;;;;;26.23;88.91;100986.25;7398083;19;20017;-48
2022/06/30 07:40:48;;;;;;;29.10;25.27;;;;;;;26.37;86.90;100992.81;7399622;19;20472;-45
2022/06/30 07:43:17;;;;;;;31.65;28.55;;;;;;;25.75;91.83;100991.34;7397381;19;20132;-45
2022/06/30 07:45:46;;;;;;;30.25;27.05;;;;;;;25.60;94.06;100984.91;7400204;19;20416;-48
2022/06/30 07:48:17;;;;;;;31.02;27.75;;;;;;;26.08;92.52;100992.28;7400591;19;20037;-45
2022/06/30 07:50:46;;;;;;;33.42;29.52;;;;;;;25.79;92.83;100995.38;7397855;19;20017;-44
2022/06/30 07:53:16;;;;;;;33.28;29.88;;;;;;;25.57;94.98;100991.44;7398260;19;20018;-48
2022/06/30 07:55:45;;;;;;;30.00;26.75;;;;;;;26.10;94.49;100994.78;7401169;19;20029;-43
2022/06/30 07:58:14;;;;;;;35.13;31.50;;;;;;;26.41;92.39;101004.91;7405396;19;20387;-44
2022/06/30 08:00:44;;;;;;;33.35;30.02;;;;;;;26.65;89.73;101014.81;7411210;19;20060;-44
2022/06/30 08:03:13;;;;;;;31.83;28.48;;;;;;;26.68;86.21;101019.00;7400792;19;20022;-46
2022/06/30 08:05:44;;;;;;;36.00;30.67;;;;;;;25.56;95.05;101025.50;7399259;19;20010;-46
2022/06/30 08:08:14;;;;;;;35.15;31.45;;;;;;;25.88;95.74;101021.25;7397711;19;20058;-43
2022/06/30 08:10:43;;;;;;;36.05;32.22;;;;;;;26.10;93.02;101024.34;7396417;19;20085;-44
2022/06/30 08:13:12;;;;;;;35.45;31.88;;;;;;;26.18;90.79;101034.28;7397248;19;20002;-44
2022/06/30 08:15:41;;;;;;;31.17;27.77;;;;;;;25.68;88.24;101026.03;7396809;19;20786;-44
2022/06/30 08:18:10;;;;;;;30.30;26.40;;;;;;;25.66;87.80;101035.25;7395923;19;20454;-44
2022/06/30 08:20:40;;;;;;;31.80;28.63;;;;;;;26.06;90.61;101037.28;7395213;19;20061;-44
2022/06/30 08:23:12;;;;;;;36.45;32.83;;;;;;;25.96;94.44;101035.69;7398964;19;20018;-44
2022/06/30 08:25:41;;;;;;;31.95;28.42;;;;;;;25.99;92.73;101030.84;7400546;19;20048;-45
2022/06/30 08:28:10;;;;;;;29.65;26.58;;;;;;;26.16;88.19;101033.59;7396070;19;20328;-45
2022/06/30 08:30:39;;;;;;;27.80;24.63;;;;;;;26.36;87.84;101039.50;7397538;19;20017;-45
2022/06/30 08:33:08;;;;;;;30.27;27.23;;;;;;;26.06;87.79;101044.47;7396695;19;20018;-44
2022/06/30 08:35:37;;;;;;;30.52;26.73;;;;;;;25.81;92.26;101040.84;7395780;19;20347;-44
2022/06/30 08:38:06;;;;;;;29.55;26.55;;;;;;;25.83;93.26;101036.16;7394977;19;20010;-48
2022/06/30 08:43:21;;;;;;;29.70;26.70;;;;;;;26.04;93.10;101035.75;7396643;19;20021;-49
2022/06/30 08:45:52;;;;;;;31.20;27.88;;;;;;;25.72;98.60;101030.09;7395276;19;20045;-46
2022/06/30 08:48:21;;;;;;;29.70;26.48;;;;;;;26.79;91.23;101032.13;7394924;19;20073;-46
2022/06/30 08:50:54;;;;;;;29.80;26.48;;;;;;;26.32;91.33;101025.56;7396391;19;20040;-46
2022/06/30 08:53:25;;;;;;;32.63;24.55;;;;;;;26.51;92.40;101021.69;7403555;19;20007;-49
2022/06/30 08:55:57;;;;;;;26.77;23.85;;;;;;;26.69;96.02;101026.09;7359227;19;20134;-45
2022/06/30 08:58:27;;;;;;;27.38;24.23;;;;;;;26.45;90.89;101030.44;7398812;19;20014;-46
2022/06/30 09:00:56;;;;;;;27.85;22.83;;;;;;;26.28;91.25;101028.72;7401245;19;20071;-48
2022/06/30 09:03:25;;;;;;;26.52;23.27;;;;;;;25.96;94.29;101020.41;7359829;19;20014;-47
2022/06/30 09:05:54;;;;;;;28.00;21.38;;;;;;;26.41;98.47;101019.16;7395442;19;20019;-47
2022/06/30 09:08:23;;;;;;;28.52;19.65;;;;;;;27.22;90.35;101013.03;7391652;19;20034;-48
2022/06/30 09:10:54;;;;;;;28.00;18.05;;;;;;;27.34;88.67;101011.69;7390977;19;20065;-46
2022/06/30 09:13:27;;;;;;;18.90;16.88;;;;;;;26.78;88.25;101025.09;7389778;19;20018;-46
2022/06/30 09:16:01;;;;;;;20.63;15.63;;;;;;;27.53;84.77;101015.81;7391123;19;20006;-46
2022/06/30 09:18:31;;;;;;;15.52;13.40;;;;;;;27.48;81.01;101011.97;7394044;19;20028;-46
2022/06/30 09:21:00;;;;;;;19.75;12.38;;;;;;;27.68;78.72;101009.69;7394080;19;20030;-46
2022/06/30 09:23:31;;;;;;;15.82;11.75;;;;;;;27.04;79.11;101015.97;7357902;19;20471;-47
2022/06/30 09:26:04;;;;;;;17.98;12.00;;;;;;;26.76;81.14;101014.50;7393272;19;20040;-45
2022/06/30 09:28:46;;;;;;;15.60;10.65;;;;;;;27.26;81.59;101017.91;7397063;19;20010;-47
2022/06/30 09:31:17;;;;;;;16.17;11.10;;;;;;;27.24;78.15;101019.13;7394159;19;20472;-46
2022/06/30 09:33:48;;;;;;;11.15;9.73;;;;;;;27.03;81.91;101019.66;7396691;19;20456;-45
2022/06/30 09:36:21;;;;;;;12.15;8.70;;;;;;;27.37;77.44;101027.50;7393435;19;20014;-48
2022/06/30 09:39:06;;;;;;;12.65;9.63;;;;;;;27.55;77.73;101026.41;7393261;19;20022;-46
2022/06/30 09:41:39;;;;;;;13.52;8.40;;;;;;;27.85;76.31;101032.81;7392956;19;20034;-49
2022/06/30 09:44:21;;;;;;;10.25;6.30;;;;;;;27.63;71.89;101034.47;7394329;19;20542;-48
2022/06/30 09:47:00;;;;;;;12.07;6.28;;;;;;;27.88;67.20;101034.34;7394075;19;20078;-55
2022/06/30 09:49:34;;;;;;;12.05;6.00;;;;;;;27.13;71.87;101023.00;7393273;19;20010;-46
2022/06/30 09:52:05;;;;;;;13.40;6.20;;;;;;;27.69;71.37;101030.22;7392121;19;20018;-46
2022/06/30 09:54:35;;;;;;;12.45;6.10;;;;;;;27.15;71.81;101022.81;7393339;19;20086;-46
2022/06/30 09:57:06;;;;;;;8.98;6.38;;;;;;;27.07;72.48;101031.75;7393486;19;20015;-45
2022/06/30 09:59:38;;;;;;;11.13;7.32;;;;;;;26.67;75.88;101030.78;7392587;19;20010;-46
2022/06/30 10:02:08;;;;;;;11.38;6.50;;;;;;;26.86;74.74;101030.44;7391647;19;20486;-45
2022/06/30 10:04:56;;;;;;;11.15;6.03;;;;;;;27.73;80.21;101031.56;7392487;19;20010;-46
2022/06/30 10:07:26;;;;;;;7.07;5.20;;;;;;;28.02;74.39;101030.91;7392552;19;20011;-48
2022/06/30 10:09:55;;;;;;;8.65;4.93;;;;;;;28.36;69.26;101026.16;7392042;19;20022;-46
2022/06/30 10:12:27;;;;;;;10.02;5.65;;;;;;;28.34;68.58;101020.09;7389746;19;20634;-47
2022/06/30 10:15:00;;;;;;;11.53;5.77;;;;;;;28.40;65.03;101020.22;7395039;19;20475;-44
2022/06/30 10:17:34;;;;;;;11.63;6.50;;;;;;;27.17;68.99;101024.34;7390306;19;20638;-45
2022/06/30 10:20:04;;;;;;;9.07;5.70;;;;;;;27.38;68.79;101025.63;7393591;19;20342;-45
2022/06/30 10:22:33;;;;;;;11.27;5.55;;;;;;;27.75;70.16;101025.00;7390619;19;20019;-44
2022/06/30 10:25:02;;;;;;;7.95;5.20;;;;;;;28.24;67.97;101029.25;7392705;19;20011;-45
2022/06/30 10:27:31;;;;;;;12.85;6.43;;;;;;;28.24;66.57;101040.03;7397570;19;20046;-46
2022/06/30 10:30:06;;;;;;;9.65;5.90;;;;;;;28.62;66.43;101034.72;7399048;19;20337;-45
2022/06/30 10:32:55;;;;;;;7.38;6.00;;;;;;;27.95;67.94;101032.59;7398424;19;20015;-44
2022/06/30 10:35:33;;;;;;;10.93;6.22;;;;;;;28.43;68.39;101029.81;7398875;19;20017;-45
2022/06/30 10:38:08;;;;;;;9.90;5.70;;;;;;;28.50;69.39;101030.75;7399346;19;20478;-45
2022/06/30 10:40:54;;;;;;;13.00;6.10;;;;;;;28.16;68.56;101034.72;7397142;19;20019;-45
2022/06/30 10:43:23;;;;;;;12.05;6.88;;;;;;;27.83;73.17;101028.66;7399829;19;20018;-44
2022/06/30 10:46:01;;;;;;;12.18;6.38;;;;;;;28.45;67.95;101033.16;7397638;19;20011;-44
2022/06/30 10:48:53;;;;;;;11.27;8.27;;;;;;;28.23;70.07;101024.88;7398393;19;20112;-44
2022/06/30 10:51:23;;;;;;;13.70;6.57;;;;;;;28.77;70.67;101029.38;7398025;19;20019;-45
2022/06/30 10:53:58;;;;;;;10.15;7.78;;;;;;;28.52;69.08;101025.19;7396201;19;20021;-44
2022/06/30 10:57:00;;;;;;;11.90;7.07;;;;;;;28.59;68.43;101021.56;7398559;19;20014;-43
2022/06/30 10:59:30;;;;;;;15.20;7.07;;;;;;;28.97;70.91;101015.31;7398508;19;20026;-43
2022/06/30 11:02:25;;;;;;;13.75;6.60;;;;;;;28.32;69.32;101017.56;7395795;19;20018;-44
2022/06/30 11:05:24;;;;;;;10.98;6.03;;;;;;;28.79;68.70;101018.41;7399497;19;20022;-46
2022/06/30 11:07:53;;;;;;;8.05;6.55;;;;;;;28.45;65.13;101025.06;7397960;19;20014;-44
2022/06/30 11:10:23;;;;;;;9.35;6.45;;;;;;;28.60;67.51;101022.38;7398096;19;20539;-50
2022/06/30 11:13:00;;;;;;;10.73;6.25;;;;;;;28.84;67.48;101018.66;7395960;19;20022;-44
2022/06/30 11:15:54;;;;;;;10.55;5.93;;;;;;;29.20;66.83;101015.28;7398474;19;20483;-46
2022/06/30 11:18:24;;;;;;;9.18;4.70;;;;;;;29.15;62.72;101015.81;7398169;19;20542;-47
2022/06/30 11:20:54;;;;;;;12.13;6.90;;;;;;;28.89;63.95;101010.88;7397977;19;20491;-44
2022/06/30 11:23:23;;;;;;;11.52;6.18;;;;;;;28.44;68.20;101010.75;7398237;19;20486;-45
2022/06/30 11:28:41;;;;;;;10.07;5.80;;;;;;;29.51;62.06;101001.56;7398337;19;20014;-46
2022/06/30 11:31:32;;;;;;;10.00;5.00;;;;;;;29.94;59.86;101008.94;7397857;19;20078;-45
2022/06/30 11:34:04;;;;;;;46.00;7.57;;;;;;;31.08;56.87;101007.25;7395206;19;20017;-45
2022/06/30 11:36:34;;;;;;;14.85;5.55;;;;;;;30.79;53.51;101001.00;7397539;19;20029;-50
2022/06/30 11:39:04;;;;;;;15.70;5.82;;;;;;;31.85;52.07;101008.03;7396216;19;20010;-48
2022/06/30 11:44:21;;;;;;;19.17;5.47;;;;;;;31.85;48.33;100999.03;7396598;19;20043;-45
2022/06/30 11:46:54;;;;;;;8.43;5.32;;;;;;;31.78;49.90;100999.06;7397418;19;20064;-47
2022/06/30 11:49:24;;;;;;;8.23;3.13;;;;;;;32.76;47.43;101005.84;7397001;19;20343;-47
2022/06/30 11:51:54;;;;;;;6.05;3.40;;;;;;;33.53;40.90;101008.78;7397351;19;20028;-47
2022/06/30 11:54:27;;;;;;;8.32;3.47;;;;;;;31.89;41.24;101003.84;7397035;19;20514;-46